Time;durP1;ratioP1;P1;durP2;ratioP2;P2;SDS_P1;SDS_P2;PMS_P1;PMS_P2;Temp;Humidity;BMP_temperature;BMP_pressure;BME280_temperature;BME280_humidity;BME280_pressure;Samples;Min_cycle;Max_cycle;Signal;HPM_P1;HPM_P2
2021/12/27 00:02:06;;;;;;;11.45;5.57;;;;;;;-4.76;70.04;98850.19;4908994;29;20091;-96
2021/12/27 00:04:32;;;;;;;9.90;5.53;;;;;;;-4.73;70.02;98846.66;4924250;29;20423;-96
2021/12/27 00:06:59;;;;;;;11.38;5.47;;;;;;;-4.70;69.43;98850.03;4940128;29;20048;-96
2021/12/27 00:09:25;;;;;;;9.20;5.35;;;;;;;-4.76;69.72;98844.97;4924813;29;20078;-96
2021/12/27 00:11:50;;;;;;;15.55;6.70;;;;;;;-4.68;69.92;98856.03;4944416;29;20207;-94
2021/12/27 00:14:17;;;;;;;17.88;6.20;;;;;;;-4.57;69.94;98847.09;4944851;29;20046;-93
2021/12/27 00:16:43;;;;;;;10.02;5.60;;;;;;;-4.60;69.64;98858.44;4914551;29;20047;-91
2021/12/27 00:19:10;;;;;;;16.60;6.25;;;;;;;-4.65;69.82;98844.69;4946681;29;20047;-95
2021/12/27 00:21:36;;;;;;;13.65;6.68;;;;;;;-4.66;69.71;98846.44;4923021;29;20112;-93
2021/12/27 00:24:02;;;;;;;18.73;6.15;;;;;;;-4.58;69.69;98853.22;4942849;29;20079;-95
2021/12/27 00:26:28;;;;;;;14.18;6.95;;;;;;;-4.62;70.12;98846.38;4923571;29;20062;-95
2021/12/27 00:28:54;;;;;;;15.98;7.57;;;;;;;-4.61;69.76;98843.69;4940115;29;20079;-95
2021/12/27 00:31:20;;;;;;;12.55;7.03;;;;;;;-4.59;69.72;98854.09;4922846;29;20052;-95
2021/12/27 00:33:46;;;;;;;18.77;7.68;;;;;;;-4.67;70.15;98846.47;4925066;29;20562;-93
2021/12/27 00:36:13;;;;;;;23.23;8.60;;;;;;;-4.66;70.39;98862.09;4941900;29;20499;-95
2021/12/27 00:38:39;;;;;;;6.13;3.67;;;;;;;-4.59;70.25;98856.69;4909886;29;20062;-95
2021/12/27 00:41:05;;;;;;;16.10;6.85;;;;;;;-4.64;70.20;98862.88;4941439;29;20051;-95
2021/12/27 00:43:30;;;;;;;20.73;7.25;;;;;;;-4.60;70.96;98861.06;4944225;29;20062;-95
2021/12/27 00:45:56;;;;;;;13.55;7.60;;;;;;;-4.51;70.50;98853.00;4942377;29;20127;-94
2021/12/27 00:48:23;;;;;;;19.88;7.68;;;;;;;-4.44;70.23;98858.88;4925564;29;20095;-95
2021/12/27 00:50:49;;;;;;;12.05;6.88;;;;;;;-4.41;70.59;98872.69;4928183;29;20135;-95
2021/12/27 00:53:14;;;;;;;9.77;6.10;;;;;;;-4.40;70.03;98863.13;4946795;29;20100;-96
2021/12/27 00:55:40;;;;;;;10.25;6.15;;;;;;;-4.42;70.33;98859.72;4926370;29;20059;-94
2021/12/27 00:58:06;;;;;;;16.65;7.28;;;;;;;-4.44;70.17;98867.59;4953558;29;20040;-96
2021/12/27 01:00:32;;;;;;;12.93;6.05;;;;;;;-4.46;70.39;98864.16;4954139;29;20098;-95
2021/12/27 01:02:59;;;;;;;17.42;7.20;;;;;;;-4.42;70.43;98860.56;4947316;29;20047;-94
2021/12/27 01:05:25;;;;;;;15.40;6.28;;;;;;;-4.37;70.07;98863.03;4950497;29;20043;-94
2021/12/27 01:07:51;;;;;;;7.97;5.22;;;;;;;-4.26;70.80;98871.44;4936316;29;20054;-87
2021/12/27 01:18:04;;;;;;;9.10;4.53;;;;;;;-4.08;69.74;98861.38;4922824;29;20044;-92
2021/12/27 01:20:30;;;;;;;13.32;5.97;;;;;;;-4.03;69.97;98862.94;4938817;29;20050;-89
2021/12/27 01:22:57;;;;;;;13.23;5.20;;;;;;;-4.06;69.71;98851.72;4907460;29;20043;-90
2021/12/27 01:25:23;;;;;;;8.70;5.32;;;;;;;-4.00;69.54;98860.25;4924693;29;20102;-94
2021/12/27 01:27:51;;;;;;;9.52;5.05;;;;;;;-3.97;70.04;98861.94;4911252;29;20043;-92
2021/12/27 01:30:21;;;;;;;11.27;5.93;;;;;;;-4.00;69.72;98864.63;4924385;29;20464;-90
2021/12/27 01:32:51;;;;;;;9.68;5.40;;;;;;;-3.99;70.06;98856.72;4941604;29;20496;-94
2021/12/27 01:35:18;;;;;;;7.15;4.95;;;;;;;-3.90;69.79;98858.25;4940322;29;20074;-94
2021/12/27 01:37:44;;;;;;;7.70;5.07;;;;;;;-3.86;69.80;98859.00;4922866;29;20415;-91
2021/12/27 01:40:11;;;;;;;11.55;5.22;;;;;;;-3.85;69.67;98856.34;4906165;29;20047;-91
2021/12/27 01:42:37;;;;;;;8.98;5.22;;;;;;;-3.86;69.74;98844.19;4921877;29;20176;-90
2021/12/27 01:45:03;;;;;;;7.57;4.88;;;;;;;-3.81;69.83;98857.97;4905498;29;20048;-91
2021/12/27 01:47:31;;;;;;;8.88;5.38;;;;;;;-3.77;69.81;98863.94;4939714;29;20047;-91
2021/12/27 01:49:57;;;;;;;12.50;5.07;;;;;;;-3.62;69.53;98860.03;4939573;29;20040;-89
2021/12/27 01:52:23;;;;;;;6.22;5.15;;;;;;;-3.62;69.25;98858.25;4922880;29;20054;-89
2021/12/27 01:54:50;;;;;;;7.32;5.07;;;;;;;-3.62;69.73;98855.66;4939475;29;20044;-88
2021/12/27 01:57:17;;;;;;;8.25;5.53;;;;;;;-3.51;69.70;98860.53;4922833;29;20048;-92
2021/12/27 01:59:42;;;;;;;7.07;5.03;;;;;;;-3.52;69.41;98848.41;4911227;29;20491;-86
2021/12/27 02:02:08;;;;;;;7.30;4.95;;;;;;;-3.55;69.60;98853.72;4930317;29;20058;-90
2021/12/27 02:04:34;;;;;;;9.70;5.57;;;;;;;-3.47;69.27;98862.16;4939891;29;20134;-88
2021/12/27 02:07:00;;;;;;;13.18;5.40;;;;;;;-3.47;69.56;98863.00;4945908;29;20048;-87
2021/12/27 02:09:37;;;;;;;11.55;5.38;;;;;;;-3.46;69.67;98863.84;4924647;29;20489;-89
2021/12/27 02:12:03;;;;;;;8.23;5.43;;;;;;;-3.51;69.79;98864.00;4923412;29;20590;-93
2021/12/27 02:14:29;;;;;;;10.88;5.40;;;;;;;-3.44;69.60;98872.53;4937217;29;20047;-89
2021/12/27 02:16:55;;;;;;;11.60;5.97;;;;;;;-3.44;69.88;98877.75;4938944;29;20051;-89
2021/12/27 02:19:21;;;;;;;7.72;5.10;;;;;;;-3.44;70.13;98878.59;4921023;29;20082;-88
2021/12/27 02:21:47;;;;;;;8.77;6.05;;;;;;;-3.43;70.37;98866.38;4937908;29;20494;-86
2021/12/27 02:24:13;;;;;;;7.60;5.13;;;;;;;-3.44;70.35;98868.16;4921434;29;20155;-89
2021/12/27 02:26:40;;;;;;;7.72;5.07;;;;;;;-3.49;70.21;98874.44;4938057;29;20134;-89
2021/12/27 02:29:09;;;;;;;10.40;6.03;;;;;;;-3.54;70.74;98869.31;4921004;29;20062;-90
2021/12/27 02:31:39;;;;;;;12.70;5.28;;;;;;;-3.51;70.84;98871.00;4938606;29;20142;-89
2021/12/27 02:34:07;;;;;;;12.23;5.65;;;;;;;-3.44;70.57;98872.53;4936252;29;20048;-89
2021/12/27 02:36:33;;;;;;;7.88;5.25;;;;;;;-3.46;70.60;98875.19;4892459;29;20152;-90
2021/12/27 02:38:59;;;;;;;7.50;4.65;;;;;;;-3.45;70.54;98870.81;4918990;29;20175;-90
2021/12/27 02:41:25;;;;;;;13.18;6.38;;;;;;;-3.44;70.23;98882.97;4921033;29;20116;-91
2021/12/27 02:43:51;;;;;;;7.88;5.22;;;;;;;-3.44;70.36;98877.75;4920261;29;20466;-90
2021/12/27 02:46:18;;;;;;;7.05;5.03;;;;;;;-3.49;70.38;98890.09;4888810;29;20066;-91
2021/12/27 02:48:48;;;;;;;8.60;4.72;;;;;;;-3.71;70.37;98888.13;4904814;29;20052;-90
2021/12/27 02:51:17;;;;;;;6.25;4.85;;;;;;;-3.73;70.74;98884.69;4925623;29;20115;-87
2021/12/27 02:53:44;;;;;;;8.40;5.10;;;;;;;-3.59;70.46;98886.06;4913845;29;20127;-89
2021/12/27 02:56:11;;;;;;;9.23;5.93;;;;;;;-3.57;70.30;98892.06;4911931;29;20052;-88
2021/12/27 02:58:37;;;;;;;7.53;5.00;;;;;;;-3.66;70.65;98883.63;4911054;29;20044;-90
2021/12/27 03:01:12;;;;;;;9.30;5.55;;;;;;;-3.76;70.79;98887.41;4921260;29;20084;-90
2021/12/27 03:03:38;;;;;;;11.27;4.70;;;;;;;-3.70;70.63;98913.34;4902993;29;20052;-89
2021/12/27 03:06:05;;;;;;;8.77;5.20;;;;;;;-3.87;70.71;98899.94;4904600;29;20040;-91
2021/12/27 03:08:31;;;;;;;7.88;5.18;;;;;;;-4.04;71.35;98896.94;4926372;29;20055;-90
2021/12/27 03:10:58;;;;;;;8.32;5.97;;;;;;;-4.07;71.68;98902.25;4920746;29;20524;-89
2021/12/27 03:13:25;;;;;;;4.75;3.42;;;;;;;-4.22;71.97;98900.91;4904691;29;20083;-89
2021/12/27 03:16:02;;;;;;;8.07;4.40;;;;;;;-4.17;71.79;98910.34;4876388;29;20047;-86
2021/12/27 03:18:28;;;;;;;8.27;5.22;;;;;;;-4.11;71.64;98905.84;4888947;29;20083;-84
2021/12/27 03:20:54;;;;;;;6.15;5.13;;;;;;;-3.99;71.69;98915.94;4921947;29;20048;-83
2021/12/27 03:23:20;;;;;;;6.85;5.18;;;;;;;-3.84;71.02;98915.50;4938511;29;20056;-85
2021/12/27 03:25:47;;;;;;;8.27;4.20;;;;;;;-3.88;70.80;98913.88;4930694;29;20040;-88
2021/12/27 03:28:13;;;;;;;7.35;4.97;;;;;;;-3.89;70.55;98920.00;4887800;29;20044;-87
2021/12/27 03:30:39;;;;;;;6.95;5.38;;;;;;;-4.03;70.80;98916.91;4888521;29;20052;-90
2021/12/27 03:33:06;;;;;;;6.75;4.97;;;;;;;-4.16;70.84;98904.22;4871522;29;20044;-91
2021/12/27 03:35:36;;;;;;;7.07;4.60;;;;;;;-4.08;70.67;98917.03;4910892;29;20071;-92
2021/12/27 03:38:04;;;;;;;8.20;5.18;;;;;;;-4.12;70.32;98931.09;4910770;29;20079;-92
2021/12/27 03:40:30;;;;;;;6.93;5.07;;;;;;;-4.12;69.85;98914.56;4924095;29;20044;-91
2021/12/27 03:42:56;;;;;;;3.65;2.95;;;;;;;-4.18;69.51;98923.41;4908482;29;20134;-94
2021/12/27 03:45:26;;;;;;;5.63;4.10;;;;;;;-4.17;69.39;98933.81;4927237;29;20415;-86
2021/12/27 03:47:52;;;;;;;5.38;4.35;;;;;;;-4.06;68.95;98935.25;4904831;29;20047;-87
2021/12/27 03:50:18;;;;;;;6.95;4.78;;;;;;;-4.01;69.26;98936.00;4923544;29;20035;-94
2021/12/27 03:52:45;;;;;;;6.45;4.82;;;;;;;-4.07;68.21;98938.78;4916797;29;20043;-92
2021/12/27 03:55:11;;;;;;;8.80;5.55;;;;;;;-4.21;68.52;98929.59;4944943;29;20079;-89
2021/12/27 03:57:40;;;;;;;8.20;4.15;;;;;;;-4.22;68.38;98925.25;4925336;29;20523;-85
2021/12/27 04:02:49;;;;;;;4.63;3.88;;;;;;;-4.39;68.46;98932.69;4922081;29;20063;-88
2021/12/27 04:05:15;;;;;;;5.75;4.70;;;;;;;-4.44;68.82;98922.38;4919760;29;20058;-87
2021/12/27 04:07:44;;;;;;;6.45;4.25;;;;;;;-4.54;68.77;98912.22;4937429;29;20056;-84
2021/12/27 04:10:10;;;;;;;8.77;6.05;;;;;;;-4.58;69.13;98915.81;4919125;29;20054;-83
2021/12/27 04:12:36;;;;;;;14.82;4.78;;;;;;;-4.69;68.92;98929.97;4918979;29;20050;-80
2021/12/27 04:15:03;;;;;;;16.90;4.90;;;;;;;-4.84;68.82;98925.13;4919089;29;20048;-80
2021/12/27 04:17:29;;;;;;;17.48;4.53;;;;;;;-4.94;68.57;98924.47;4903170;29;20050;-85
2021/12/27 04:19:55;;;;;;;5.57;4.70;;;;;;;-5.06;68.41;98945.63;4903372;29;20487;-85
2021/12/27 04:22:21;;;;;;;5.13;4.28;;;;;;;-5.22;67.95;98939.94;4934956;29;20046;-82
2021/12/27 04:24:47;;;;;;;8.95;5.05;;;;;;;-5.29;68.40;98961.78;4935817;29;20402;-85
2021/12/27 04:27:13;;;;;;;15.05;4.38;;;;;;;-5.41;68.77;98955.13;4872364;29;20079;-90
2021/12/27 04:29:39;;;;;;;5.50;4.60;;;;;;;-5.55;68.66;98957.16;4941058;29;20043;-91
2021/12/27 04:32:06;;;;;;;4.88;3.33;;;;;;;-5.68;68.96;98966.97;4938754;29;20047;-92
2021/12/27 04:34:32;;;;;;;17.30;4.32;;;;;;;-5.75;69.02;98970.59;4937740;29;20056;-90
2021/12/27 04:36:58;;;;;;;7.85;4.47;;;;;;;-5.89;69.49;98962.19;4934874;29;20408;-87
2021/12/27 04:39:25;;;;;;;6.80;4.65;;;;;;;-5.90;69.55;98971.75;4935225;29;20086;-93
2021/12/27 04:41:53;;;;;;;9.77;4.20;;;;;;;-5.24;75.33;98986.00;4934291;29;20522;-83
2021/12/27 04:44:19;;;;;;;5.25;4.25;;;;;;;-4.19;75.54;98972.16;4919200;29;20052;-88
2021/12/27 04:46:45;;;;;;;3.83;3.22;;;;;;;-4.47;67.41;98984.22;4919046;29;20052;-89
2021/12/27 04:49:10;;;;;;;5.38;4.10;;;;;;;-4.81;66.09;98982.41;4888057;29;20103;-90
2021/12/27 04:51:37;;;;;;;5.35;4.35;;;;;;;-5.06;65.91;98986.47;4888404;29;20054;-89
2021/12/27 04:54:03;;;;;;;5.68;3.78;;;;;;;-5.31;66.05;98992.22;4934956;29;20058;-85
2021/12/27 04:56:29;;;;;;;8.02;4.68;;;;;;;-5.54;66.35;98994.47;4921145;29;20442;-86
2021/12/27 04:58:55;;;;;;;6.80;4.35;;;;;;;-5.81;66.61;98991.53;4903759;29;20137;-90
2021/12/27 05:01:22;;;;;;;5.90;4.35;;;;;;;-5.95;66.77;98993.56;4903598;29;20043;-90
2021/12/27 05:03:48;;;;;;;12.30;3.88;;;;;;;-6.07;67.17;98999.88;4889325;29;20052;-83
2021/12/27 05:06:14;;;;;;;7.32;4.63;;;;;;;-6.27;67.64;99004.59;4934729;29;20056;-83
2021/12/27 05:08:41;;;;;;;9.73;3.72;;;;;;;-6.31;67.56;99006.38;4888570;29;20054;-83
2021/12/27 05:11:08;;;;;;;5.82;3.72;;;;;;;-6.37;67.83;99009.06;4935893;29;20067;-91
2021/12/27 05:13:34;;;;;;;5.90;4.00;;;;;;;-6.44;67.76;99010.06;4934277;29;20128;-84
2021/12/27 05:16:00;;;;;;;7.55;4.63;;;;;;;-6.48;67.95;99024.84;4919741;29;20043;-94
2021/12/27 05:18:26;;;;;;;5.75;4.47;;;;;;;-6.45;67.46;99016.16;4902530;29;20486;-83
2021/12/27 05:20:52;;;;;;;4.97;3.72;;;;;;;-6.46;67.76;99037.84;4922386;29;20044;-92
2021/12/27 05:23:19;;;;;;;6.97;3.75;;;;;;;-6.57;67.81;99037.16;4939100;29;20480;-87
2021/12/27 05:25:45;;;;;;;5.15;3.85;;;;;;;-6.64;67.47;99039.84;4938232;29;20070;-93
2021/12/27 05:28:11;;;;;;;6.95;4.07;;;;;;;-6.64;67.73;99039.84;4921944;29;20068;-87
2021/12/27 05:30:38;;;;;;;5.43;3.60;;;;;;;-6.74;67.55;99033.06;4937734;29;20072;-83
2021/12/27 05:33:04;;;;;;;8.98;5.00;;;;;;;-6.70;68.13;99050.31;4905489;29;20072;-80
2021/12/27 05:35:30;;;;;;;5.78;4.20;;;;;;;-6.68;68.01;99047.72;4921065;29;20442;-79
2021/12/27 05:37:56;;;;;;;11.60;4.35;;;;;;;-6.64;67.63;99049.38;4921154;29;20503;-82
2021/12/27 05:40:22;;;;;;;5.35;4.32;;;;;;;-6.79;67.95;99045.28;4921652;29;20130;-85
2021/12/27 05:42:50;;;;;;;6.32;3.75;;;;;;;-6.91;67.83;99035.06;4921851;29;20059;-87
2021/12/27 05:45:16;;;;;;;7.60;4.47;;;;;;;-6.97;68.16;99040.34;4890811;29;20044;-84
2021/12/27 05:47:42;;;;;;;4.80;3.47;;;;;;;-6.91;68.27;99056.72;4924018;29;20042;-83
2021/12/27 05:50:08;;;;;;;4.75;3.15;;;;;;;-6.95;67.84;99041.19;4937011;29;20048;-88
2021/12/27 05:52:34;;;;;;;8.05;4.50;;;;;;;-6.83;69.24;99053.16;4920890;29;20499;-88
2021/12/27 05:55:00;;;;;;;17.38;5.82;;;;;;;-6.77;69.41;99059.13;4920700;29;20071;-90
2021/12/27 05:57:26;;;;;;;9.95;3.85;;;;;;;-6.81;67.88;99066.97;4921290;29;20439;-83
2021/12/27 05:59:52;;;;;;;11.63;4.15;;;;;;;-6.94;67.40;99067.16;4936696;29;20047;-86
2021/12/27 06:02:18;;;;;;;8.07;4.22;;;;;;;-6.98;67.69;99067.22;4937035;29;20110;-89
2021/12/27 06:04:44;;;;;;;5.75;4.07;;;;;;;-7.01;67.23;99064.66;4889668;29;20047;-88
2021/12/27 06:07:10;;;;;;;6.35;3.67;;;;;;;-7.03;67.20;99071.59;4935955;29;20135;-87
2021/12/27 06:09:36;;;;;;;6.07;4.25;;;;;;;-7.07;67.35;99060.38;4935989;29;20071;-83
2021/12/27 06:12:02;;;;;;;4.93;3.47;;;;;;;-7.16;67.14;99060.53;4938216;29;20130;-90
2021/12/27 06:14:28;;;;;;;5.88;3.97;;;;;;;-7.11;67.22;99069.09;4918085;29;20051;-85
2021/12/27 06:16:54;;;;;;;7.90;4.80;;;;;;;-7.11;67.40;99075.19;4936576;29;20508;-86
2021/12/27 06:19:21;;;;;;;6.97;3.80;;;;;;;-7.13;66.70;99071.75;4936693;29;20050;-82
2021/12/27 06:21:47;;;;;;;10.48;4.20;;;;;;;-7.26;67.00;99080.56;4905621;29;20098;-85
2021/12/27 06:24:13;;;;;;;5.90;4.03;;;;;;;-7.30;67.10;99078.88;4937449;29;20533;-91
2021/12/27 06:26:39;;;;;;;8.15;4.05;;;;;;;-7.36;67.01;99078.97;4905400;29;20047;-86
2021/12/27 06:29:05;;;;;;;7.78;4.15;;;;;;;-7.18;67.19;99086.53;4936408;29;20538;-82
2021/12/27 06:31:31;;;;;;;8.95;3.75;;;;;;;-7.36;66.90;99090.22;4935676;29;20073;-84
2021/12/27 06:33:57;;;;;;;8.55;5.40;;;;;;;-7.31;66.95;99082.34;4920028;29;20091;-85
2021/12/27 06:36:24;;;;;;;7.75;4.15;;;;;;;-7.35;66.99;99091.06;4929424;29;20457;-86
2021/12/27 06:38:50;;;;;;;7.25;3.90;;;;;;;-7.30;67.01;99078.03;4935840;29;20044;-86
2021/12/27 06:41:16;;;;;;;7.72;3.65;;;;;;;-7.22;66.43;99092.66;4936833;29;20099;-85
2021/12/27 06:43:42;;;;;;;15.57;4.07;;;;;;;-7.29;66.41;99091.00;4888990;29;20039;-89
2021/12/27 06:46:08;;;;;;;11.90;4.00;;;;;;;-7.28;67.09;99087.53;4904574;29;20056;-80
2021/12/27 06:48:35;;;;;;;10.32;5.07;;;;;;;-7.19;66.83;99087.38;4937865;29;20047;-86
2021/12/27 06:51:01;;;;;;;5.47;3.20;;;;;;;-7.16;66.19;99092.56;4921242;29;20047;-86
2021/12/27 06:53:31;;;;;;;9.13;4.82;;;;;;;-7.22;66.16;99097.84;4937703;29;20134;-82
2021/12/27 06:55:57;;;;;;;2.60;2.38;;;;;;;-7.29;66.42;99093.59;4921013;29;20567;-79
2021/12/27 06:58:23;;;;;;;8.10;3.50;;;;;;;-7.30;66.21;99094.44;4916723;29;20043;-84
2021/12/27 07:00:50;;;;;;;3.97;2.60;;;;;;;-7.37;66.87;99098.00;4930250;29;20067;-84
2021/12/27 07:03:16;;;;;;;3.95;3.15;;;;;;;-7.36;67.12;99089.34;4905170;29;20044;-82
2021/12/27 07:05:42;;;;;;;3.30;2.60;;;;;;;-7.24;66.57;99089.19;4937549;29;20066;-83
2021/12/27 07:08:09;;;;;;;8.00;4.43;;;;;;;-7.27;66.53;99094.41;4937226;29;20133;-82
2021/12/27 07:10:35;;;;;;;7.53;4.53;;;;;;;-7.28;66.17;99084.91;4904738;29;20043;-88
2021/12/27 07:13:03;;;;;;;14.90;3.55;;;;;;;-7.23;66.54;99100.44;4936401;29;20063;-90
2021/12/27 07:15:32;;;;;;;3.60;2.95;;;;;;;-7.22;66.21;99097.84;4938522;29;20043;-90
2021/12/27 07:17:58;;;;;;;4.28;3.33;;;;;;;-7.23;66.18;99088.31;4937443;29;20051;-90
2021/12/27 07:20:24;;;;;;;5.07;3.22;;;;;;;-7.20;66.22;99095.22;4908161;29;20043;-88
2021/12/27 07:22:50;;;;;;;5.68;3.35;;;;;;;-7.10;66.07;99099.41;4941586;29;20051;-89
2021/12/27 07:25:16;;;;;;;6.10;3.70;;;;;;;-7.00;65.47;99108.78;4954476;29;20051;-83
2021/12/27 07:27:43;;;;;;;6.28;3.40;;;;;;;-7.09;65.70;99102.00;4921887;29;20047;-87
2021/12/27 07:30:10;;;;;;;10.73;4.35;;;;;;;-7.14;65.68;99114.19;4893063;29;20581;-88
2021/12/27 07:32:36;;;;;;;5.82;4.00;;;;;;;-6.97;65.59;99113.94;4937635;29;20039;-85
2021/12/27 07:35:03;;;;;;;4.20;3.03;;;;;;;-7.02;64.78;99094.13;4921466;29;20129;-82
2021/12/27 07:37:29;;;;;;;4.28;3.33;;;;;;;-6.95;65.14;99100.97;4939829;29;20051;-87
2021/12/27 07:39:55;;;;;;;6.93;4.03;;;;;;;-6.88;64.89;99113.84;4891821;29;20075;-85
2021/12/27 07:42:22;;;;;;;5.88;3.85;;;;;;;-6.81;64.83;99096.41;4954445;28;20046;-85
2021/12/27 07:44:48;;;;;;;5.57;3.00;;;;;;;-6.76;64.40;99102.41;4923025;29;20051;-86
2021/12/27 07:47:14;;;;;;;4.22;2.65;;;;;;;-6.66;64.31;99103.13;4922646;29;20513;-80
2021/12/27 07:49:40;;;;;;;5.35;3.60;;;;;;;-6.87;64.19;99094.78;4938322;29;20050;-77
2021/12/27 07:52:07;;;;;;;11.40;3.67;;;;;;;-6.73;67.48;99104.09;4922991;29;20153;-82
2021/12/27 07:54:33;;;;;;;4.53;3.60;;;;;;;-6.76;64.52;99112.81;4907142;29;20051;-80
2021/12/27 07:57:00;;;;;;;5.13;3.83;;;;;;;-6.80;64.36;99102.50;4919211;29;20467;-84
2021/12/27 07:59:27;;;;;;;4.30;3.47;;;;;;;-6.74;63.54;99095.44;4902569;29;20095;-84
2021/12/27 08:01:53;;;;;;;5.40;3.85;;;;;;;-6.82;63.65;99086.03;4922044;29;20486;-81
2021/12/27 08:04:19;;;;;;;6.47;3.53;;;;;;;-6.73;63.12;99091.97;4918858;29;20043;-88
2021/12/27 08:06:45;;;;;;;6.38;3.78;;;;;;;-6.81;63.17;99104.19;4919410;29;20044;-80
2021/12/27 08:09:11;;;;;;;7.65;3.63;;;;;;;-6.79;63.11;99096.41;4933953;29;20039;-80
2021/12/27 08:11:37;;;;;;;5.45;3.38;;;;;;;-6.67;62.96;99096.22;4920297;29;20533;-80
2021/12/27 08:14:04;;;;;;;6.15;4.05;;;;;;;-6.60;62.46;99088.31;4921382;29;20067;-83
2021/12/27 08:16:30;;;;;;;4.38;2.90;;;;;;;-6.42;61.87;99096.72;4888875;29;20520;-81
2021/12/27 08:18:56;;;;;;;4.40;3.28;;;;;;;-6.45;61.19;99097.63;4935567;29;20515;-90
2021/12/27 08:21:22;;;;;;;6.13;3.55;;;;;;;-6.47;61.10;99101.13;4927403;29;20047;-88
2021/12/27 08:23:52;;;;;;;4.47;3.15;;;;;;;-6.49;61.17;99115.91;4943386;29;20060;-91
2021/12/27 08:26:18;;;;;;;5.40;3.70;;;;;;;-6.14;61.27;99103.19;4905529;29;20032;-95
2021/12/27 08:28:46;;;;;;;7.75;3.65;;;;;;;-5.95;60.17;99123.69;4921511;29;20111;-92
2021/12/27 08:31:12;;;;;;;2.63;2.42;;;;;;;-5.99;59.30;99111.63;4921939;29;20420;-86
2021/12/27 08:33:38;;;;;;;3.60;3.13;;;;;;;-6.06;58.79;99120.41;4919799;29;20115;-85
2021/12/27 08:36:05;;;;;;;5.72;3.65;;;;;;;-6.03;59.25;99154.19;4919851;29;20056;-87
2021/12/27 08:38:31;;;;;;;4.55;3.05;;;;;;;-5.97;58.95;99141.09;4919745;29;20054;-85
2021/12/27 08:40:57;;;;;;;6.78;4.15;;;;;;;-5.71;59.10;99153.63;4935995;29;20044;-90
2021/12/27 08:43:24;;;;;;;6.00;3.90;;;;;;;-5.63;57.98;99163.03;4873315;29;20082;-87
2021/12/27 08:45:50;;;;;;;6.47;3.60;;;;;;;-5.71;57.88;99164.91;4935278;29;20047;-83
2021/12/27 08:48:16;;;;;;;4.82;3.85;;;;;;;-5.69;58.02;99159.66;4936278;29;20528;-91
2021/12/27 08:50:42;;;;;;;7.03;3.85;;;;;;;-5.43;57.36;99167.00;4919829;29;20134;-84
2021/12/27 08:53:08;;;;;;;5.97;3.90;;;;;;;-5.45;57.15;99164.44;4936437;29;20126;-89
2021/12/27 08:55:35;;;;;;;4.45;3.67;;;;;;;-5.57;56.68;99150.75;4923199;29;20092;-92
2021/12/27 08:58:04;;;;;;;10.88;4.57;;;;;;;-5.55;57.09;99167.22;4908114;29;20083;-93
2021/12/27 09:00:30;;;;;;;4.63;3.80;;;;;;;-5.58;56.58;99149.06;4924332;29;20142;-95
2021/12/27 09:02:56;;;;;;;5.18;3.97;;;;;;;-5.64;56.59;99166.50;4923548;29;20067;-88
2021/12/27 09:05:23;;;;;;;5.72;3.42;;;;;;;-5.73;57.05;99177.06;4923135;29;20049;-88
2021/12/27 09:07:49;;;;;;;6.85;4.07;;;;;;;-5.48;56.67;99176.66;4907425;29;20058;-80
2021/12/27 09:10:15;;;;;;;5.85;4.10;;;;;;;-5.44;56.61;99173.09;4918286;29;20039;-88
2021/12/27 09:12:41;;;;;;;4.35;2.95;;;;;;;-5.54;56.11;99171.53;4881610;29;20051;-87
2021/12/27 09:23:35;;;;;;;16.05;4.53;;;;;;;-5.58;56.49;99167.28;4907630;29;20537;-86
2021/12/27 09:26:42;;;;;;;5.40;3.53;;;;;;;-5.27;59.69;99178.00;4887737;29;20051;-89
2021/12/27 09:29:10;;;;;;;5.70;3.75;;;;;;;-5.64;55.88;99179.53;4892595;29;20043;-88
2021/12/27 09:31:50;;;;;;;7.28;4.00;;;;;;;-5.70;56.40;99186.59;4892381;29;20070;-83
2021/12/27 09:34:44;;;;;;;4.03;2.90;;;;;;;-6.19;56.77;99183.06;4928665;29;20047;-85
2021/12/27 09:48:36;;;;;;;5.65;3.42;;;;;;;-7.14;58.94;99163.53;4878451;29;20485;-86
2021/12/27 10:23:36;;;;;;;;;;;;;;;;;;;;;
2021/12/27 10:27:49;;;;;;;5.95;3.28;;;;;;;-7.13;59.31;99256.16;4821257;29;20117;-84
2021/12/27 10:35:03;;;;;;;7.65;4.63;;;;;;;-6.72;59.12;99274.78;4771680;30;20144;-82
2021/12/27 10:38:13;;;;;;;18.07;3.80;;;;;;;-6.76;58.15;99283.50;4732584;30;20075;-83
2021/12/27 10:41:35;;;;;;;;;;;;;;;;;;;;;
2021/12/27 10:45:12;;;;;;;5.03;3.38;;;;;;;-6.63;58.90;99306.72;4792492;29;20110;-80
2021/12/27 10:53:25;;;;;;;;;;;;;;;;;;;;;
2021/12/27 10:57:03;;;;;;;;;;;;;;;;;;;;;
2021/12/27 10:59:37;;;;;;;6.28;3.53;;;;;;;-6.01;55.81;99304.22;4860826;29;20057;-82
2021/12/27 11:02:10;;;;;;;;;;;;;;;-5.89;55.76;99316.16;4860092;29;20148;-82
2021/12/27 11:04:53;;;;;;;7.55;3.63;;;;;;;-6.21;55.36;99301.88;4860451;29;19924;-80
2021/12/27 11:07:31;;;;;;;7.38;3.85;;;;;;;-6.40;55.48;99316.00;4844960;29;20075;-80
2021/12/27 11:10:00;;;;;;;6.10;3.53;;;;;;;-6.62;56.13;99321.47;4846682;29;20081;-81
2021/12/27 11:12:30;;;;;;;6.93;4.32;;;;;;;-6.74;56.26;99342.38;4841942;29;20084;-81
2021/12/27 11:14:59;;;;;;;7.03;3.75;;;;;;;-7.02;56.57;99348.72;4827777;29;20148;-81
2021/12/27 11:17:51;;;;;;;8.45;4.35;;;;;;;-7.44;57.51;99333.50;4811621;29;20224;-82
2021/12/27 11:20:23;;;;;;;6.68;3.95;;;;;;;-7.65;58.16;99342.28;4827850;29;20502;-80
2021/12/27 11:23:02;;;;;;;6.53;3.58;;;;;;;-7.72;58.49;99361.34;4828209;29;20053;-82
2021/12/27 11:25:45;;;;;;;5.53;3.45;;;;;;;-7.91;59.17;99364.94;4828484;29;20069;-83
2021/12/27 11:28:39;;;;;;;5.55;3.72;;;;;;;-8.09;59.56;99381.44;4826704;29;20097;-81
2021/12/27 11:31:16;;;;;;;6.35;4.35;;;;;;;-8.13;59.62;99384.94;4822289;29;20077;-79
2021/12/27 11:34:14;;;;;;;6.07;4.15;;;;;;;-8.34;60.03;99372.91;4824348;29;20098;-80
2021/12/27 11:36:46;;;;;;;7.80;4.15;;;;;;;-8.41;59.99;99363.47;4819423;29;20110;-80
2021/12/27 11:39:36;;;;;;;9.30;4.32;;;;;;;-8.44;59.47;99374.69;4804847;29;20522;-80
2021/12/27 11:42:11;;;;;;;7.22;4.38;;;;;;;-8.61;60.06;99367.00;4805547;29;20069;-79
2021/12/27 11:44:58;;;;;;;6.30;3.63;;;;;;;-8.64;60.60;99384.28;4828725;29;20541;-83
2021/12/27 11:47:32;;;;;;;6.45;4.25;;;;;;;-8.96;60.78;99368.78;4840619;29;20054;-82
2021/12/27 11:50:07;;;;;;;6.80;3.78;;;;;;;-9.07;61.59;99377.41;4820271;29;20053;-82
2021/12/27 11:53:27;;;;;;;4.95;3.47;;;;;;;-9.13;61.96;99398.16;4843593;29;20049;-84
2021/12/27 11:56:14;;;;;;;6.10;3.55;;;;;;;-9.41;62.15;99391.22;4819807;29;20054;-82
2021/12/27 11:58:50;;;;;;;3.35;2.35;;;;;;;-9.69;62.51;99395.50;4820853;29;20046;-81
2021/12/27 12:01:21;;;;;;;11.43;4.47;;;;;;;-9.61;62.30;99428.28;4802350;29;20097;-81
2021/12/27 12:03:48;;;;;;;;;;;;;;;-9.69;62.71;99432.56;4803248;29;20082;-80
2021/12/27 12:06:53;;;;;;;4.47;3.25;;;;;;;-9.88;63.09;99428.22;4802846;29;19982;-80
2021/12/27 12:09:31;;;;;;;4.75;3.50;;;;;;;-10.12;63.24;99401.38;4801373;29;20051;-79
2021/12/27 12:12:08;;;;;;;5.88;3.53;;;;;;;-10.28;63.54;99402.22;4803586;29;20535;-88
2021/12/27 12:14:46;;;;;;;6.63;4.05;;;;;;;-10.16;64.08;99429.81;4802699;29;20047;-78
2021/12/27 12:18:05;;;;;;;;;;;;;;;;;;;;;
2021/12/27 12:25:25;;;;;;;6.15;3.53;;;;;;;-10.54;63.74;99444.28;4856337;29;20125;-80
2021/12/27 12:28:06;;;;;;;8.68;3.90;;;;;;;-10.65;64.17;99425.28;4856879;29;20075;-80
2021/12/27 12:30:41;;;;;;;5.13;3.70;;;;;;;-10.77;64.15;99430.38;4863718;29;20048;-78
2021/12/27 12:33:34;;;;;;;5.60;3.67;;;;;;;-10.57;65.09;99464.06;4867360;29;20284;-82
2021/12/27 12:40:16;;;;;;;5.88;3.78;;;;;;;-10.74;64.54;99456.22;4875428;29;20109;-87
2021/12/27 12:43:10;;;;;;;46.88;17.20;;;;;;;-10.74;64.82;99463.97;4861162;29;20053;-87
2021/12/27 12:45:45;;;;;;;5.00;3.85;;;;;;;-10.94;64.31;99443.16;4859336;29;20049;-86
2021/12/27 12:53:03;;;;;;;12.15;4.63;;;;;;;-11.12;64.51;99450.75;4839241;29;20057;-89
2021/12/27 12:59:26;;;;;;;4.63;3.40;;;;;;;-10.98;64.67;99489.56;4843218;29;20049;-90
2021/12/27 13:02:09;;;;;;;8.02;3.65;;;;;;;-11.16;64.69;99478.25;4856695;29;20092;-86
2021/12/27 13:04:49;;;;;;;7.07;3.58;;;;;;;-11.14;65.05;99492.03;4884092;29;20048;-83
2021/12/27 13:07:55;;;;;;;6.50;3.60;;;;;;;-11.30;65.09;99475.53;4866314;29;20147;-81
2021/12/27 13:10:35;;;;;;;4.00;3.15;;;;;;;-11.31;65.09;99484.13;4887297;29;20053;-80
2021/12/27 13:13:11;;;;;;;5.80;3.42;;;;;;;-11.41;65.12;99472.00;4858942;29;20052;-82
2021/12/27 13:15:40;;;;;;;5.95;3.92;;;;;;;-11.44;65.21;99473.66;4874732;29;20049;-83
2021/12/27 13:18:28;;;;;;;4.32;3.25;;;;;;;-11.46;65.65;99496.03;4875359;29;20041;-87
2021/12/27 13:21:06;;;;;;;9.07;3.60;;;;;;;-11.70;65.76;99469.09;4889698;29;20053;-82
2021/12/27 13:24:36;;;;;;;;;;;;;;;;;;;;;
2021/12/27 15:12:20;;;;;;;4.25;3.63;;;;;;;-13.45;68.00;99578.06;4954889;29;20059;-84